createdAt,value
2018-12-20T00:02:38.026Z,472.77
2018-12-20T00:05:20.891Z,480.60
2018-12-20T00:08:02.591Z,485.43
2018-12-20T00:10:50.797Z,492.27
2018-12-20T00:13:33.406Z,471.80
2018-12-20T00:16:16.270Z,491.03
2018-12-20T00:18:59.269Z,501.90
2018-12-20T00:21:44.858Z,480.30
2018-12-20T00:24:26.129Z,469.07
2018-12-20T00:27:08.914Z,491.73
2018-12-20T00:29:50.240Z,476.00
2018-12-20T00:32:32.478Z,488.93
2018-12-20T00:35:17.702Z,464.33
2018-12-20T00:38:01.156Z,485.17
2018-12-20T00:40:46.439Z,463.57
2018-12-20T00:43:33.237Z,498.87
2018-12-20T00:46:16.321Z,454.73
2018-12-20T00:48:58.631Z,469.10
2018-12-20T00:51:43.234Z,453.23
2018-12-20T00:54:27.357Z,482.53
2018-12-20T00:57:10.803Z,467.20
2018-12-20T00:59:53.663Z,449.53
2018-12-20T01:02:37.619Z,469.53
2018-12-20T01:05:20.359Z,465.37
2018-12-20T01:08:02.704Z,467.40
2018-12-20T01:10:46.295Z,460.53
2018-12-20T01:13:28.494Z,477.80
2018-12-20T01:16:11.122Z,450.00
2018-12-20T01:18:55.198Z,457.53
2018-12-20T01:21:38.313Z,463.07
2018-12-20T01:24:21.788Z,446.67
2018-12-20T01:27:04.642Z,465.43
2018-12-20T01:29:48.173Z,469.23
2018-12-20T01:32:30.462Z,491.63
2018-12-20T01:35:12.040Z,497.90
2018-12-20T01:37:56.655Z,499.23
2018-12-20T01:40:37.716Z,529.07
2018-12-20T01:43:24.653Z,532.70
2018-12-20T01:46:08.505Z,551.73
2018-12-20T01:48:51.326Z,527.80
2018-12-20T01:51:36.801Z,518.53
2018-12-20T01:54:19.381Z,532.23
2018-12-20T01:57:03.542Z,533.03
2018-12-20T01:59:47.707Z,532.10
2018-12-20T02:02:31.154Z,523.77
2018-12-20T02:05:14.327Z,516.83
2018-12-20T02:07:56.400Z,511.03
2018-12-20T02:10:42.691Z,542.77
2018-12-20T02:13:25.320Z,534.00
2018-12-20T02:16:09.779Z,542.57
2018-12-20T02:18:56.481Z,591.70
2018-12-20T02:21:38.767Z,595.70
2018-12-20T02:24:23.817Z,590.93
2018-12-20T02:27:07.634Z,578.80
2018-12-20T02:29:49.656Z,601.10
2018-12-20T02:32:34.182Z,643.83
2018-12-20T02:35:16.638Z,637.47
2018-12-20T02:38:01.720Z,635.73
2018-12-20T02:40:45.650Z,636.77
2018-12-20T02:43:27.298Z,622.63
2018-12-20T02:46:11.229Z,634.63
2018-12-20T02:48:53.813Z,644.90
2018-12-20T02:51:41.749Z,624.50
2018-12-20T02:54:25.415Z,628.30
2018-12-20T02:57:11.673Z,646.33
2018-12-20T02:59:56.655Z,663.37
2018-12-20T03:02:43.824Z,659.60
2018-12-20T03:05:31.396Z,659.87
2018-12-20T03:08:13.561Z,655.80
2018-12-20T03:10:56.103Z,677.27
2018-12-20T03:13:39.322Z,669.53
2018-12-20T03:16:24.525Z,660.37
2018-12-20T03:19:08.742Z,681.27
2018-12-20T03:21:54.804Z,703.43
2018-12-20T03:24:37.853Z,713.03
2018-12-20T03:27:22.197Z,727.20
2018-12-20T03:30:03.847Z,689.00
2018-12-20T03:32:49.778Z,703.90
2018-12-20T03:35:34.693Z,707.50
2018-12-20T03:38:18.442Z,689.70
2018-12-20T03:41:01.910Z,706.17
2018-12-20T03:43:47.828Z,948.03
2018-12-20T03:46:30.698Z,746.47
2018-12-20T03:49:17.523Z,769.63
2018-12-20T03:52:01.421Z,743.30
2018-12-20T03:54:51.508Z,787.00
2018-12-20T03:57:39.820Z,730.30
2018-12-20T04:00:22.913Z,692.73
2018-12-20T04:03:05.291Z,701.63
2018-12-20T04:05:51.522Z,677.17
2018-12-20T04:08:36.902Z,662.77
2018-12-20T04:11:21.764Z,699.33
2018-12-20T04:14:07.043Z,735.07
2018-12-20T04:16:52.621Z,649.73
2018-12-20T04:19:36.593Z,647.13
2018-12-20T04:22:21.454Z,666.33
2018-12-20T04:25:06.623Z,660.93
2018-12-20T04:27:51.543Z,595.53
2018-12-20T04:30:33.396Z,581.93
2018-12-20T04:33:17.992Z,563.80
2018-12-20T04:36:03.212Z,563.20
2018-12-20T04:38:56.840Z,591.87
2018-12-20T04:41:40.383Z,589.70
2018-12-20T04:44:28.504Z,586.73
2018-12-20T04:47:10.696Z,586.67
2018-12-20T04:49:55.826Z,600.93
2018-12-20T04:52:38.820Z,617.57
2018-12-20T04:55:26.272Z,594.97
2018-12-20T04:58:11.987Z,599.20
2018-12-20T05:00:56.999Z,591.07
2018-12-20T05:03:40.769Z,629.53
2018-12-20T05:06:28.126Z,605.03
2018-12-20T05:09:16.190Z,627.27
2018-12-20T05:12:01.577Z,858.13
2018-12-20T05:14:46.211Z,841.80
2018-12-20T05:17:34.756Z,720.00
2018-12-20T05:20:20.515Z,812.03
2018-12-20T05:23:06.701Z,635.40
2018-12-20T05:25:53.800Z,597.30
2018-12-20T05:28:35.555Z,584.87
2018-12-20T05:31:19.978Z,580.67
2018-12-20T05:34:07.829Z,606.10
2018-12-20T05:36:50.893Z,581.73
2018-12-20T05:39:36.002Z,593.07
2018-12-20T05:42:22.655Z,574.30
2018-12-20T05:45:07.745Z,593.83
2018-12-20T05:47:52.898Z,624.43
2018-12-20T05:50:43.021Z,589.80
2018-12-20T05:53:28.107Z,634.80
2018-12-20T05:56:10.317Z,613.53
2018-12-20T05:58:53.668Z,592.23
2018-12-20T06:01:39.871Z,596.87
2018-12-20T06:04:29.664Z,567.47
2018-12-20T06:07:16.845Z,566.10
2018-12-20T06:10:02.839Z,579.07
2018-12-20T06:12:51.705Z,564.73
2018-12-20T06:15:46.851Z,586.47
2018-12-20T06:18:40.295Z,579.43
2018-12-20T06:21:25.630Z,576.77
2018-12-20T06:24:10.603Z,566.83
2018-12-20T06:26:55.905Z,586.77
2018-12-20T06:29:39.858Z,567.70
2018-12-20T06:32:22.875Z,542.90
2018-12-20T06:35:10.201Z,517.90
2018-12-20T06:38:02.878Z,507.20
2018-12-20T06:40:50.951Z,490.27
2018-12-20T06:43:36.749Z,477.50
2018-12-20T06:46:24.944Z,451.40
2018-12-20T06:49:12.832Z,466.27
2018-12-20T06:59:19.819Z,399.53
2018-12-20T07:02:02.917Z,402.13
2018-12-20T07:04:49.493Z,382.23
2018-12-20T07:07:32.934Z,386.83
2018-12-20T07:13:11.896Z,439.50
2018-12-20T07:15:58.235Z,458.57
2018-12-20T07:36:54.711Z,449.17
2018-12-20T07:39:40.949Z,432.57
2018-12-20T07:42:25.562Z,478.60
2018-12-20T07:45:10.573Z,433.57
2018-12-20T07:47:57.687Z,456.37
2018-12-20T07:50:43.923Z,441.40
2018-12-20T07:53:29.428Z,436.70
2018-12-20T07:56:13.782Z,428.97
2018-12-20T08:17:08.443Z,418.87
2018-12-20T08:20:02.276Z,420.80
2018-12-20T08:25:41.107Z,407.20
2018-12-20T08:28:26.748Z,425.27
2018-12-20T08:31:11.014Z,433.90
2018-12-20T08:33:59.406Z,416.83
2018-12-20T08:54:48.214Z,371.33
2018-12-20T08:57:30.700Z,399.83
2018-12-20T09:00:19.662Z,447.10
2018-12-20T09:03:09.856Z,376.70
2018-12-20T09:05:55.147Z,379.40
2018-12-20T09:08:39.530Z,374.00
2018-12-20T09:11:24.761Z,386.67
2018-12-20T09:14:09.469Z,359.83
2018-12-20T09:34:56.675Z,365.97
2018-12-20T09:37:41.995Z,372.10
2018-12-20T09:40:36.066Z,356.00
2018-12-20T09:43:24.869Z,346.80
2018-12-20T09:49:03.942Z,297.23
2018-12-20T09:51:50.809Z,327.20
2018-12-20T10:12:36.093Z,368.97
2018-12-20T10:15:19.900Z,366.80
2018-12-20T10:18:05.530Z,372.73
2018-12-20T10:20:51.416Z,361.97
2018-12-20T10:23:35.771Z,350.70
2018-12-20T10:26:21.930Z,337.27
2018-12-20T10:29:14.006Z,376.23
2018-12-20T10:32:10.107Z,349.83
2018-12-20T10:52:56.622Z,487.27
2018-12-20T10:55:49.082Z,567.40
2018-12-20T10:58:34.897Z,551.10
2018-12-20T11:01:22.890Z,523.27
2018-12-20T11:07:08.544Z,573.70
2018-12-20T11:10:02.681Z,476.73
2018-12-20T11:30:48.081Z,438.17
2018-12-20T11:33:48.770Z,504.27
2018-12-20T11:36:36.501Z,576.87
2018-12-20T11:39:27.871Z,769.07
2018-12-20T11:42:11.988Z,600.13
2018-12-20T11:44:56.579Z,540.03
2018-12-20T11:47:45.874Z,581.83
2018-12-20T11:54:55.020Z,495.37
2018-12-20T11:57:39.686Z,491.50
2018-12-20T12:00:24.083Z,474.43
2018-12-20T12:03:06.187Z,488.37
2018-12-20T12:05:57.319Z,479.13
2018-12-20T12:08:41.197Z,457.00
2018-12-20T12:11:25.794Z,485.40
2018-12-20T12:14:12.233Z,604.90
2018-12-20T12:16:59.165Z,504.13
2018-12-20T12:22:32.289Z,518.73
2018-12-20T12:25:14.945Z,953.13
2018-12-20T12:27:57.153Z,628.17
2018-12-20T12:33:29.182Z,515.87
2018-12-20T12:38:58.178Z,520.60
2018-12-20T12:41:41.018Z,953.13
2018-12-20T12:44:23.172Z,492.67
2018-12-20T12:47:12.226Z,596.43
2018-12-20T12:49:56.587Z,489.70
2018-12-20T12:52:39.196Z,411.83
2018-12-20T12:58:13.598Z,386.47
2018-12-20T13:00:57.668Z,377.37
2018-12-20T13:03:43.557Z,373.87
2018-12-20T13:06:36.960Z,357.97
2018-12-20T13:09:27.205Z,365.13
2018-12-20T13:12:17.225Z,369.67
2018-12-20T13:14:59.086Z,381.33
2018-12-20T13:17:45.010Z,535.63
2018-12-20T13:20:28.771Z,476.40
2018-12-20T13:23:16.200Z,443.53
2018-12-20T13:25:58.099Z,432.87
2018-12-20T13:28:43.914Z,419.07
2018-12-20T13:31:38.153Z,420.63
2018-12-20T13:34:25.350Z,430.30
2018-12-20T13:37:15.951Z,437.90
2018-12-20T13:40:03.296Z,429.23
2018-12-20T13:42:56.279Z,417.53
2018-12-20T13:45:41.682Z,400.50
2018-12-20T13:48:25.170Z,408.17
2018-12-20T13:51:12.303Z,417.40
2018-12-20T13:54:00.416Z,422.07
2018-12-20T13:56:52.130Z,419.90
2018-12-20T13:59:38.201Z,462.87
2018-12-20T14:05:25.581Z,462.97
2018-12-20T14:08:15.290Z,440.57
2018-12-20T14:11:03.334Z,438.37
2018-12-20T14:13:53.814Z,429.30
2018-12-20T14:16:41.850Z,445.17
2018-12-20T14:19:27.137Z,453.83
2018-12-20T14:22:14.245Z,470.47
2018-12-20T14:25:00.700Z,455.40
2018-12-20T14:27:55.269Z,445.37
2018-12-20T14:30:43.301Z,438.17
2018-12-20T14:33:32.816Z,434.60
2018-12-20T14:36:25.270Z,440.13
2018-12-20T14:39:12.274Z,452.17
2018-12-20T14:45:11.751Z,463.63
2018-12-20T14:48:03.401Z,469.77
2018-12-20T14:50:48.133Z,459.60
2018-12-20T14:53:36.181Z,443.03
2018-12-20T14:56:21.288Z,432.27
2018-12-20T15:02:05.829Z,455.60
2018-12-20T15:04:55.349Z,463.90
2018-12-20T15:07:44.677Z,433.23
2018-12-20T15:10:34.817Z,638.07
2018-12-20T15:16:21.790Z,429.00
2018-12-20T15:19:11.419Z,423.50
2018-12-20T15:22:00.204Z,437.77
2018-12-20T15:27:51.364Z,422.37
2018-12-20T15:30:43.716Z,418.57
2018-12-20T15:33:33.446Z,413.43
2018-12-20T15:36:25.359Z,422.57
2018-12-20T15:39:16.325Z,427.53
2018-12-20T15:42:01.712Z,429.10
2018-12-20T15:44:48.214Z,426.43
2018-12-20T15:50:34.125Z,437.27
2018-12-20T15:53:24.941Z,433.07
2018-12-20T15:56:10.774Z,410.73
2018-12-20T15:58:55.823Z,441.37
2018-12-20T16:01:48.148Z,438.33
2018-12-20T16:04:34.288Z,425.97
2018-12-20T16:10:17.350Z,446.57
2018-12-20T16:13:02.094Z,440.80
2018-12-20T16:15:49.841Z,454.60
2018-12-20T16:18:38.363Z,439.50
2018-12-20T16:21:32.367Z,455.63
2018-12-20T16:24:21.367Z,447.77
2018-12-20T16:27:04.797Z,462.93
2018-12-20T16:29:53.147Z,441.73
2018-12-20T16:32:40.267Z,453.60
2018-12-20T16:35:27.355Z,464.07
2018-12-20T16:38:11.122Z,469.67
2018-12-20T16:40:54.818Z,461.70
2018-12-20T16:43:41.371Z,454.57
2018-12-20T16:46:26.291Z,458.47
2018-12-20T16:49:13.694Z,459.53
2018-12-20T16:52:02.068Z,479.87
2018-12-20T16:54:47.039Z,463.40
2018-12-20T16:57:32.438Z,455.90
2018-12-20T17:00:20.498Z,436.33
2018-12-20T17:03:04.460Z,438.87
2018-12-20T17:05:48.183Z,437.73
2018-12-20T17:08:30.337Z,444.07
2018-12-20T17:11:16.275Z,436.73
2018-12-20T17:13:59.967Z,440.83
2018-12-20T17:16:42.797Z,415.47
2018-12-20T17:19:29.343Z,436.20
2018-12-20T17:22:11.235Z,431.00
2018-12-20T17:24:56.238Z,398.13
2018-12-20T17:27:42.507Z,424.03
2018-12-20T17:30:27.069Z,416.27
2018-12-20T17:33:10.466Z,435.83
2018-12-20T17:35:58.794Z,435.83
2018-12-20T17:38:45.957Z,432.03
2018-12-20T17:41:38.925Z,430.00
2018-12-20T17:44:24.808Z,441.50
2018-12-20T17:47:06.349Z,443.97
2018-12-20T17:49:55.626Z,460.00
2018-12-20T17:52:38.176Z,437.40
2018-12-20T17:55:25.305Z,426.90
2018-12-20T17:58:10.247Z,417.40
2018-12-20T18:00:52.468Z,456.43
2018-12-20T18:03:43.031Z,437.50
2018-12-20T18:06:25.489Z,443.23
2018-12-20T18:09:11.374Z,427.90
2018-12-20T18:11:54.449Z,441.10
2018-12-20T18:14:37.883Z,420.83
2018-12-20T18:17:20.392Z,412.10
2018-12-20T18:20:04.556Z,402.67
2018-12-20T18:22:49.097Z,417.83
2018-12-20T18:25:33.593Z,410.17
2018-12-20T18:28:16.007Z,406.80
2018-12-20T18:30:58.177Z,387.77
2018-12-20T18:33:41.620Z,412.47
2018-12-20T18:36:25.343Z,408.70
2018-12-20T18:39:11.897Z,389.73
2018-12-20T18:41:52.824Z,381.77
2018-12-20T18:44:35.997Z,393.27
2018-12-20T18:47:18.514Z,383.97
2018-12-20T18:50:02.205Z,392.93
2018-12-20T18:52:43.174Z,387.53
2018-12-20T18:55:27.218Z,387.80
2018-12-20T18:58:10.033Z,401.27
2018-12-20T19:00:52.541Z,409.60
2018-12-20T19:03:37.282Z,412.07
2018-12-20T19:06:23.123Z,418.67
2018-12-20T19:09:05.600Z,396.10
2018-12-20T19:15:44.551Z,379.67
2018-12-20T19:18:36.511Z,403.93
2018-12-20T19:21:19.509Z,420.90
2018-12-20T19:24:03.510Z,432.57
2018-12-20T19:26:50.992Z,454.33
2018-12-20T19:29:39.385Z,412.80
2018-12-20T19:53:36.537Z,434.77
2018-12-20T19:56:28.211Z,433.40
2018-12-20T19:59:10.981Z,426.87
2018-12-20T20:02:04.317Z,423.97
2018-12-20T20:04:50.550Z,409.77
2018-12-20T20:07:38.484Z,423.47
2018-12-20T20:10:22.220Z,422.70
2018-12-20T20:34:54.628Z,424.77
2018-12-20T20:37:37.519Z,422.93
2018-12-20T20:40:21.517Z,389.80
2018-12-20T20:43:04.071Z,404.57
2018-12-20T20:45:46.587Z,405.10
2018-12-20T20:48:31.551Z,422.43
2018-12-20T20:51:16.524Z,413.53
2018-12-20T21:12:02.186Z,407.43
2018-12-20T21:14:52.597Z,425.43
2018-12-20T21:17:44.155Z,392.80
2018-12-20T21:20:30.822Z,424.53
2018-12-20T21:23:18.358Z,407.00
2018-12-20T21:26:11.604Z,415.60
2018-12-20T21:28:59.031Z,419.83
2018-12-20T21:31:44.053Z,395.97
2018-12-20T21:55:17.735Z,431.63
2018-12-20T21:58:01.657Z,439.63
2018-12-20T22:00:47.440Z,417.43
2018-12-20T22:03:31.481Z,433.30
2018-12-20T22:06:19.793Z,422.23
2018-12-20T22:09:11.559Z,431.37
2018-12-20T22:11:56.176Z,414.93
2018-12-20T22:14:42.109Z,428.47
2018-12-20T22:17:26.664Z,413.07
2018-12-20T22:20:12.320Z,391.97
2018-12-20T22:23:01.315Z,425.37
2018-12-20T22:25:45.312Z,419.80
2018-12-20T22:28:27.563Z,423.60
2018-12-20T22:31:12.533Z,423.70
2018-12-20T22:33:58.426Z,421.37
2018-12-20T22:36:45.236Z,422.80
2018-12-20T22:39:28.722Z,446.70
2018-12-20T22:42:14.256Z,446.90
2018-12-20T22:45:03.517Z,452.40
2018-12-20T22:47:47.257Z,410.47
2018-12-20T22:50:29.154Z,422.00
2018-12-20T22:53:10.101Z,421.80
2018-12-20T22:55:54.483Z,417.20
2018-12-20T22:58:39.142Z,405.17
2018-12-20T23:01:22.577Z,414.30
2018-12-20T23:04:07.237Z,423.63
2018-12-20T23:06:50.055Z,433.37
2018-12-20T23:09:35.637Z,407.33
2018-12-20T23:12:18.214Z,425.83
2018-12-20T23:15:00.037Z,415.10
2018-12-20T23:17:45.278Z,421.53
2018-12-20T23:20:28.400Z,470.83
2018-12-20T23:23:13.414Z,452.50
2018-12-20T23:25:54.721Z,437.43
2018-12-20T23:28:38.083Z,449.53
2018-12-20T23:31:22.482Z,450.77
2018-12-20T23:34:04.696Z,435.87
2018-12-20T23:36:54.268Z,419.20
2018-12-20T23:39:39.791Z,425.67
2018-12-20T23:42:23.287Z,436.03
2018-12-20T23:45:04.803Z,448.27
2018-12-20T23:47:48.610Z,460.50
2018-12-20T23:50:32.655Z,461.37
2018-12-20T23:53:15.121Z,440.53
2018-12-20T23:56:00.461Z,747.13
2018-12-20T23:58:44.151Z,532.50
